sensor_id;sensor_type;location;lat;lon;timestamp;pressure;altitude;pressure_sealevel;temperature;humidity
21877;BME280;11103;43.788;23.710;2023-02-19T00:02:11;148348.63;;;7.83;100.00
21877;BME280;11103;43.788;23.710;2023-02-19T00:04:37;148376.72;;;7.94;100.00
21877;BME280;11103;43.788;23.710;2023-02-19T00:07:02;148366.53;;;7.90;100.00
21877;BME280;11103;43.788;23.710;2023-02-19T00:09:27;148374.19;;;7.93;100.00
21877;BME280;11103;43.788;23.710;2023-02-19T00:11:53;148362.69;;;7.89;100.00
21877;BME280;11103;43.788;23.710;2023-02-19T00:14:20;148378.00;;;7.95;100.00
21877;BME280;11103;43.788;23.710;2023-02-19T00:16:46;148370.34;;;7.92;100.00
21877;BME280;11103;43.788;23.710;2023-02-19T00:19:14;148407.38;;;8.06;100.00
21877;BME280;11103;43.788;23.710;2023-02-19T00:21:40;148417.56;;;8.10;100.00
21877;BME280;11103;43.788;23.710;2023-02-19T00:24:07;148425.25;;;8.13;100.00
21877;BME280;11103;43.788;23.710;2023-02-19T00:26:34;148440.59;;;8.19;100.00
21877;BME280;11103;43.788;23.710;2023-02-19T00:29:02;148455.91;;;8.25;100.00
21877;BME280;11103;43.788;23.710;2023-02-19T00:31:30;148467.44;;;8.30;100.00
21877;BME280;11103;43.788;23.710;2023-02-19T00:33:57;148489.19;;;8.38;100.00
21877;BME280;11103;43.788;23.710;2023-02-19T00:36:25;148507.03;;;8.46;100.00
21877;BME280;11103;43.788;23.710;2023-02-19T00:38:50;148473.84;;;8.32;100.00
21877;BME280;11103;43.788;23.710;2023-02-19T00:41:17;148527.47;;;8.54;100.00
21877;BME280;11103;43.788;23.710;2023-02-19T00:48:50;148517.28;;;8.50;100.00
21877;BME280;11103;43.788;23.710;2023-02-19T00:51:17;148517.28;;;8.50;100.00
21877;BME280;11103;43.788;23.710;2023-02-19T00:53:43;148523.66;;;8.52;100.00
21877;BME280;11103;43.788;23.710;2023-02-19T00:56:08;148542.81;;;8.60;100.00
21877;BME280;11103;43.788;23.710;2023-02-19T00:58:34;148530.03;;;8.55;100.00
21877;BME280;11103;43.788;23.710;2023-02-19T01:01:00;148509.59;;;8.47;100.00
21877;BME280;11103;43.788;23.710;2023-02-19T01:03:26;148519.81;;;8.51;100.00
21877;BME280;11103;43.788;23.710;2023-02-19T01:05:51;148512.19;;;8.48;100.00
21877;BME280;11103;43.788;23.710;2023-02-19T01:08:17;148492.97;;;8.40;100.00
21877;BME280;11103;43.788;23.710;2023-02-19T01:10:43;148472.53;;;8.32;100.00
21877;BME280;11103;43.788;23.710;2023-02-19T01:13:08;148446.97;;;8.22;100.00
21877;BME280;11103;43.788;23.710;2023-02-19T01:15:34;148436.78;;;8.18;100.00
21877;BME280;11103;43.788;23.710;2023-02-19T01:18:00;148398.44;;;8.03;100.00
21877;BME280;11103;43.788;23.710;2023-02-19T01:20:26;148390.78;;;8.00;100.00
21877;BME280;11103;43.788;23.710;2023-02-19T01:22:52;148388.25;;;7.99;100.00
21877;BME280;11103;43.788;23.710;2023-02-19T01:25:17;148338.44;;;7.79;100.00
21877;BME280;11103;43.788;23.710;2023-02-19T01:27:43;148338.44;;;7.79;100.00
21877;BME280;11103;43.788;23.710;2023-02-19T01:30:09;148343.53;;;7.81;100.00
21877;BME280;11103;43.788;23.710;2023-02-19T01:32:34;148269.50;;;7.52;100.00
21877;BME280;11103;43.788;23.710;2023-02-19T01:35:00;148246.53;;;7.43;100.00
21877;BME280;11103;43.788;23.710;2023-02-19T01:37:25;148245.22;;;7.42;100.00
21877;BME280;11103;43.788;23.710;2023-02-19T01:39:51;148256.75;;;7.47;100.00
21877;BME280;11103;43.788;23.710;2023-02-19T01:42:16;148274.59;;;7.54;100.00
21877;BME280;11103;43.788;23.710;2023-02-19T01:47:07;148320.53;;;7.72;100.00
21877;BME280;11103;43.788;23.710;2023-02-19T01:49:45;148323.09;;;7.73;100.00
21877;BME280;11103;43.788;23.710;2023-02-19T01:52:33;148402.28;;;8.04;100.00
21877;BME280;11103;43.788;23.710;2023-02-19T01:55:02;148464.88;;;8.29;100.00
21877;BME280;11103;43.788;23.710;2023-02-19T01:57:32;148560.72;;;8.67;100.00
21877;BME280;11103;43.788;23.710;2023-02-19T02:00:09;148655.28;;;9.04;100.00
21877;BME280;11103;43.788;23.710;2023-02-19T02:02:35;148792.06;;;9.58;100.00
21877;BME280;11103;43.788;23.710;2023-02-19T02:05:01;148976.31;;;10.31;100.00
21877;BME280;11103;43.788;23.710;2023-02-19T02:07:27;149104.31;;;10.81;100.00
21877;BME280;11103;43.788;23.710;2023-02-19T02:10:11;149236.19;;;11.33;100.00
21877;BME280;11103;43.788;23.710;2023-02-19T02:12:46;149382.25;;;11.90;100.00
21877;BME280;11103;43.788;23.710;2023-02-19T02:15:13;149437.34;;;12.12;100.00
21877;BME280;11103;43.788;23.710;2023-02-19T02:22:51;149630.94;;;12.88;94.37
21877;BME280;11103;43.788;23.710;2023-02-19T02:36:06;149814.44;;;13.60;84.01
21877;BME280;11103;43.788;23.710;2023-02-19T02:38:34;149861.94;;;13.79;82.51
21877;BME280;11103;43.788;23.710;2023-02-19T02:41:01;149860.63;;;13.79;81.33
21877;BME280;11103;43.788;23.710;2023-02-19T02:43:27;149885.06;;;13.88;80.55
21877;BME280;11103;43.788;23.710;2023-02-19T02:45:53;149891.47;;;13.91;79.69
21877;BME280;11103;43.788;23.710;2023-02-19T02:51:11;149864.53;;;13.80;80.08
21877;BME280;11103;43.788;23.710;2023-02-19T02:54:04;149877.34;;;13.85;79.43
21877;BME280;11103;43.788;23.710;2023-02-19T02:56:51;149886.34;;;13.89;79.23
21877;BME280;11103;43.788;23.710;2023-02-19T02:59:19;149876.06;;;13.85;79.62
21877;BME280;11103;43.788;23.710;2023-02-19T03:01:53;149858.09;;;13.78;80.12
21877;BME280;11103;43.788;23.710;2023-02-19T03:07:42;149814.44;;;13.60;81.22
21877;BME280;11103;43.788;23.710;2023-02-19T03:10:12;149795.22;;;13.53;81.89
21877;BME280;11103;43.788;23.710;2023-02-19T03:12:43;149802.94;;;13.56;81.76
21877;BME280;11103;43.788;23.710;2023-02-19T03:15:34;149783.63;;;13.48;82.09
21877;BME280;11103;43.788;23.710;2023-02-19T03:18:20;149777.22;;;13.46;82.44
21877;BME280;11103;43.788;23.710;2023-02-19T03:21:06;149738.75;;;13.31;82.77
21877;BME280;11103;43.788;23.710;2023-02-19T03:23:32;149768.28;;;13.42;83.35
21877;BME280;11103;43.788;23.710;2023-02-19T03:26:18;149772.09;;;13.44;83.47
21877;BME280;11103;43.788;23.710;2023-02-19T03:28:46;149770.81;;;13.43;83.61
21877;BME280;11103;43.788;23.710;2023-02-19T03:31:32;149775.94;;;13.45;83.73
21877;BME280;11103;43.788;23.710;2023-02-19T03:34:04;149755.41;;;13.37;84.14
21877;BME280;11103;43.788;23.710;2023-02-19T03:36:39;149784.94;;;13.49;84.21
21877;BME280;11103;43.788;23.710;2023-02-19T03:39:08;149791.34;;;13.51;84.29
21877;BME280;11103;43.788;23.710;2023-02-19T03:47:11;149792.63;;;13.52;85.32
21877;BME280;11103;43.788;23.710;2023-02-19T03:49:53;149752.88;;;13.36;86.38
21877;BME280;11103;43.788;23.710;2023-02-19T03:52:41;149723.34;;;13.25;87.31
21877;BME280;11103;43.788;23.710;2023-02-19T04:00:30;149695.13;;;13.13;89.24
21877;BME280;11103;43.788;23.710;2023-02-19T04:06:14;149682.31;;;13.08;90.76
21877;BME280;11103;43.788;23.710;2023-02-19T04:08:44;149674.56;;;13.05;91.30
21877;BME280;11103;43.788;23.710;2023-02-19T04:11:13;149669.44;;;13.03;91.88
21877;BME280;11103;43.788;23.710;2023-02-19T04:13:43;149661.75;;;13.00;92.07
21877;BME280;11103;43.788;23.710;2023-02-19T04:16:16;149620.69;;;12.84;92.95
21877;BME280;11103;43.788;23.710;2023-02-19T04:18:43;149620.69;;;12.84;93.87
21877;BME280;11103;43.788;23.710;2023-02-19T04:21:10;149611.72;;;12.81;94.37
21877;BME280;11103;43.788;23.710;2023-02-19T04:23:40;149605.31;;;12.78;95.14
21877;BME280;11103;43.788;23.710;2023-02-19T04:26:07;149583.50;;;12.70;95.63
21877;BME280;11103;43.788;23.710;2023-02-19T04:28:34;149582.22;;;12.69;96.36
21877;BME280;11103;43.788;23.710;2023-02-19T04:31:00;149579.66;;;12.68;97.00
21877;BME280;11103;43.788;23.710;2023-02-19T04:33:25;149568.16;;;12.64;97.77
21877;BME280;11103;43.788;23.710;2023-02-19T04:35:51;149571.97;;;12.65;98.18
21877;BME280;11103;43.788;23.710;2023-02-19T04:38:16;149569.38;;;12.64;98.62
21877;BME280;11103;43.788;23.710;2023-02-19T04:40:42;149561.69;;;12.61;98.95
21877;BME280;11103;43.788;23.710;2023-02-19T04:43:07;149554.03;;;12.58;99.57
21877;BME280;11103;43.788;23.710;2023-02-19T04:45:33;149562.97;;;12.62;99.62
21877;BME280;11103;43.788;23.710;2023-02-19T04:47:58;149569.38;;;12.64;99.67
21877;BME280;11103;43.788;23.710;2023-02-19T04:50:24;149587.38;;;12.71;99.66
21877;BME280;11103;43.788;23.710;2023-02-19T04:52:50;149573.25;;;12.66;100.00
21877;BME280;11103;43.788;23.710;2023-02-19T04:55:15;149579.66;;;12.68;100.00
21877;BME280;11103;43.788;23.710;2023-02-19T04:57:41;149560.44;;;12.61;100.00
21877;BME280;11103;43.788;23.710;2023-02-19T05:00:07;149577.09;;;12.67;100.00
21877;BME280;11103;43.788;23.710;2023-02-19T05:02:33;149554.03;;;12.58;100.00
21877;BME280;11103;43.788;23.710;2023-02-19T05:04:58;149533.53;;;12.50;100.00
21877;BME280;11103;43.788;23.710;2023-02-19T05:07:24;149518.13;;;12.44;100.00
21877;BME280;11103;43.788;23.710;2023-02-19T05:09:49;149512.97;;;12.42;100.00
21877;BME280;11103;43.788;23.710;2023-02-19T05:12:15;149511.72;;;12.41;100.00
21877;BME280;11103;43.788;23.710;2023-02-19T05:14:40;149484.81;;;12.31;100.00
21877;BME280;11103;43.788;23.710;2023-02-19T05:17:05;149479.66;;;12.29;100.00
21877;BME280;11103;43.788;23.710;2023-02-19T05:19:31;149480.94;;;12.29;100.00
21877;BME280;11103;43.788;23.710;2023-02-19T05:21:56;149448.91;;;12.17;100.00
21877;BME280;11103;43.788;23.710;2023-02-19T05:24:22;149464.31;;;12.23;100.00
21877;BME280;11103;43.788;23.710;2023-02-19T05:26:49;149454.03;;;12.19;100.00
21877;BME280;11103;43.788;23.710;2023-02-19T05:29:14;149448.91;;;12.17;100.00
21877;BME280;11103;43.788;23.710;2023-02-19T05:31:40;149443.81;;;12.15;100.00
21877;BME280;11103;43.788;23.710;2023-02-19T05:34:05;149446.34;;;12.16;100.00
21877;BME280;11103;43.788;23.710;2023-02-19T05:36:31;149418.13;;;12.05;100.00
21877;BME280;11103;43.788;23.710;2023-02-19T05:38:57;149456.63;;;12.20;100.00
21877;BME280;11103;43.788;23.710;2023-02-19T05:41:27;149484.81;;;12.31;100.00
21877;BME280;11103;43.788;23.710;2023-02-19T05:43:54;149466.84;;;12.24;100.00
21877;BME280;11103;43.788;23.710;2023-02-19T05:46:22;149489.94;;;12.33;100.00
21877;BME280;11103;43.788;23.710;2023-02-19T05:48:49;149502.75;;;12.38;100.00
21877;BME280;11103;43.788;23.710;2023-02-19T05:51:16;149512.97;;;12.42;100.00
21877;BME280;11103;43.788;23.710;2023-02-19T05:53:43;149525.84;;;12.47;100.00
21877;BME280;11103;43.788;23.710;2023-02-19T05:56:40;149598.91;;;12.76;100.00
21877;BME280;11103;43.788;23.710;2023-02-19T05:59:14;149718.22;;;13.23;100.00
21877;BME280;11103;43.788;23.710;2023-02-19T06:01:40;149841.41;;;13.71;100.00
21877;BME280;11103;43.788;23.710;2023-02-19T06:04:05;150008.34;;;14.37;99.58
21877;BME280;11103;43.788;23.710;2023-02-19T06:06:31;150126.50;;;14.83;95.03
21877;BME280;11103;43.788;23.710;2023-02-19T06:08:56;150188.16;;;15.07;91.77
21877;BME280;11103;43.788;23.710;2023-02-19T06:11:22;150329.53;;;15.63;88.32
21877;BME280;11103;43.788;23.710;2023-02-19T06:13:48;150478.72;;;16.21;83.88
21877;BME280;11103;43.788;23.710;2023-02-19T06:16:15;150602.22;;;16.70;80.40
21877;BME280;11103;43.788;23.710;2023-02-19T06:18:42;150714.19;;;17.13;76.77
21877;BME280;11103;43.788;23.710;2023-02-19T06:21:09;150792.72;;;17.44;74.16
21877;BME280;11103;43.788;23.710;2023-02-19T06:23:35;150854.56;;;17.68;71.84
21877;BME280;11103;43.788;23.710;2023-02-19T06:26:21;150707.75;;;17.11;73.16
21877;BME280;11103;43.788;23.710;2023-02-19T06:28:48;150546.88;;;16.48;75.65
21877;BME280;11103;43.788;23.710;2023-02-19T06:31:14;150391.28;;;15.87;79.17
21877;BME280;11103;43.788;23.710;2023-02-19T06:33:40;150323.13;;;15.60;81.95
21877;BME280;11103;43.788;23.710;2023-02-19T06:36:09;150272.97;;;15.40;83.93
21877;BME280;11103;43.788;23.710;2023-02-19T06:38:35;150252.41;;;15.32;84.95
21877;BME280;11103;43.788;23.710;2023-02-19T06:41:02;150254.94;;;15.33;86.17
21877;BME280;11103;43.788;23.710;2023-02-19T06:43:30;150201.00;;;15.12;86.76
21877;BME280;11103;43.788;23.710;2023-02-19T06:46:00;150203.59;;;15.13;87.38
21877;BME280;11103;43.788;23.710;2023-02-19T06:48:27;150201.00;;;15.12;87.66
21877;BME280;11103;43.788;23.710;2023-02-19T06:50:53;150180.44;;;15.04;87.84
21877;BME280;11103;43.788;23.710;2023-02-19T06:53:18;150177.84;;;15.03;88.24
21877;BME280;11103;43.788;23.710;2023-02-19T06:55:44;150150.88;;;14.93;88.67
21877;BME280;11103;43.788;23.710;2023-02-19T06:58:18;150162.47;;;14.97;89.75
21877;BME280;11103;43.788;23.710;2023-02-19T07:00:44;150168.91;;;15.00;89.88
21877;BME280;11103;43.788;23.710;2023-02-19T07:03:09;150208.72;;;15.15;89.42
21877;BME280;11103;43.788;23.710;2023-02-19T07:05:35;150224.16;;;15.21;88.86
21877;BME280;11103;43.788;23.710;2023-02-19T07:08:00;150221.56;;;15.20;88.58
21877;BME280;11103;43.788;23.710;2023-02-19T07:10:25;150193.28;;;15.09;89.01
21877;BME280;11103;43.788;23.710;2023-02-19T07:12:51;150206.13;;;15.14;89.47
21877;BME280;11103;43.788;23.710;2023-02-19T07:15:16;150230.56;;;15.24;89.68
21877;BME280;11103;43.788;23.710;2023-02-19T07:17:42;150243.41;;;15.29;89.32
21877;BME280;11103;43.788;23.710;2023-02-19T07:20:07;150275.50;;;15.41;88.92
21877;BME280;11103;43.788;23.710;2023-02-19T07:22:33;150283.22;;;15.44;89.05
21877;BME280;11103;43.788;23.710;2023-02-19T07:24:58;150296.13;;;15.49;88.38
21877;BME280;11103;43.788;23.710;2023-02-19T07:27:23;150281.94;;;15.44;88.29
21877;BME280;11103;43.788;23.710;2023-02-19T07:29:49;150308.97;;;15.55;87.87
21877;BME280;11103;43.788;23.710;2023-02-19T07:32:14;150332.13;;;15.64;87.42
21877;BME280;11103;43.788;23.710;2023-02-19T07:34:40;150350.16;;;15.71;86.35
21877;BME280;11103;43.788;23.710;2023-02-19T07:37:05;150379.69;;;15.82;85.93
21877;BME280;11103;43.788;23.710;2023-02-19T07:39:30;150380.97;;;15.83;85.05
21877;BME280;11103;43.788;23.710;2023-02-19T07:41:56;150368.13;;;15.78;85.44
21877;BME280;11103;43.788;23.710;2023-02-19T07:44:22;150437.56;;;16.05;85.00
21877;BME280;11103;43.788;23.710;2023-02-19T07:46:47;150446.56;;;16.08;84.29
21877;BME280;11103;43.788;23.710;2023-02-19T07:49:12;150428.53;;;16.01;83.59
21877;BME280;11103;43.788;23.710;2023-02-19T07:51:38;150465.84;;;16.16;84.07
21877;BME280;11103;43.788;23.710;2023-02-19T07:54:04;150503.13;;;16.31;83.01
21877;BME280;11103;43.788;23.710;2023-02-19T07:56:30;150507.00;;;16.32;83.11
21877;BME280;11103;43.788;23.710;2023-02-19T07:58:56;150545.56;;;16.47;82.17
21877;BME280;11103;43.788;23.710;2023-02-19T08:01:22;150573.91;;;16.58;81.08
21877;BME280;11103;43.788;23.710;2023-02-19T08:04:10;150586.78;;;16.63;79.32
21877;BME280;11103;43.788;23.710;2023-02-19T08:06:36;150527.59;;;16.40;77.23
21877;BME280;11103;43.788;23.710;2023-02-19T08:09:03;150593.22;;;16.66;77.23
21877;BME280;11103;43.788;23.710;2023-02-19T08:11:28;150603.53;;;16.70;76.67
21877;BME280;11103;43.788;23.710;2023-02-19T08:14:12;150589.38;;;16.64;75.37
21877;BME280;11103;43.788;23.710;2023-02-19T08:16:38;150607.38;;;16.72;74.85
21877;BME280;11103;43.788;23.710;2023-02-19T08:19:03;150618.97;;;16.76;75.01
21877;BME280;11103;43.788;23.710;2023-02-19T08:21:29;150622.81;;;16.78;75.04
21877;BME280;11103;43.788;23.710;2023-02-19T08:23:54;150633.13;;;16.82;74.52
21877;BME280;11103;43.788;23.710;2023-02-19T08:26:19;150640.84;;;16.85;74.99
21877;BME280;11103;43.788;23.710;2023-02-19T08:28:45;150648.53;;;16.88;74.61
21877;BME280;11103;43.788;23.710;2023-02-19T08:31:12;150666.56;;;16.95;74.12
21877;BME280;11103;43.788;23.710;2023-02-19T08:33:37;150676.84;;;16.99;73.85
21877;BME280;11103;43.788;23.710;2023-02-19T08:36:05;150710.34;;;17.12;73.53
21877;BME280;11103;43.788;23.710;2023-02-19T08:38:33;150723.22;;;17.17;72.86
21877;BME280;11103;43.788;23.710;2023-02-19T08:41:06;150750.25;;;17.27;73.16
21877;BME280;11103;43.788;23.710;2023-02-19T08:43:32;150723.22;;;17.17;72.33
21877;BME280;11103;43.788;23.710;2023-02-19T08:45:58;150746.34;;;17.26;72.13
21877;BME280;11103;43.788;23.710;2023-02-19T08:48:23;150738.63;;;17.23;71.96
21877;BME280;11103;43.788;23.710;2023-02-19T08:50:53;150774.66;;;17.37;71.51
21877;BME280;11103;43.788;23.710;2023-02-19T08:53:19;150768.25;;;17.35;71.62
21877;BME280;11103;43.788;23.710;2023-02-19T08:55:44;150782.41;;;17.40;70.51
21877;BME280;11103;43.788;23.710;2023-02-19T08:58:10;150794.00;;;17.45;70.51
21877;BME280;11103;43.788;23.710;2023-02-19T09:00:35;150792.72;;;17.44;70.08
21877;BME280;11103;43.788;23.710;2023-02-19T09:03:01;150794.00;;;17.45;70.33
21877;BME280;11103;43.788;23.710;2023-02-19T09:05:26;150826.25;;;17.57;70.38
21877;BME280;11103;43.788;23.710;2023-02-19T09:07:51;150841.69;;;17.63;70.08
21877;BME280;11103;43.788;23.710;2023-02-19T09:10:17;150853.25;;;17.68;69.88
21877;BME280;11103;43.788;23.710;2023-02-19T09:12:42;150817.22;;;17.54;69.22
21877;BME280;11103;43.788;23.710;2023-02-19T09:15:08;150917.66;;;17.93;67.78
21877;BME280;11103;43.788;23.710;2023-02-19T09:17:34;150939.56;;;18.02;64.04
21877;BME280;11103;43.788;23.710;2023-02-19T09:19:59;150948.53;;;18.05;63.08
21877;BME280;11103;43.788;23.710;2023-02-19T09:22:25;150967.84;;;18.13;63.61
21877;BME280;11103;43.788;23.710;2023-02-19T09:24:50;150988.47;;;18.21;62.03
21877;BME280;11103;43.788;23.710;2023-02-19T09:27:17;151006.53;;;18.28;60.35
21877;BME280;11103;43.788;23.710;2023-02-19T09:29:43;151027.13;;;18.36;59.62
21877;BME280;11103;43.788;23.710;2023-02-19T09:32:08;151029.72;;;18.37;60.98
21877;BME280;11103;43.788;23.710;2023-02-19T09:34:34;151052.91;;;18.46;57.71
21877;BME280;11103;43.788;23.710;2023-02-19T09:36:59;151047.75;;;18.44;58.46
21877;BME280;11103;43.788;23.710;2023-02-19T09:39:25;151076.16;;;18.55;58.08
21877;BME280;11103;43.788;23.710;2023-02-19T09:42:12;151101.91;;;18.65;58.84
21877;BME280;11103;43.788;23.710;2023-02-19T09:44:42;151130.25;;;18.76;58.41
21877;BME280;11103;43.788;23.710;2023-02-19T09:47:15;151170.19;;;18.92;59.16
21877;BME280;11103;43.788;23.710;2023-02-19T09:49:43;151192.13;;;19.00;58.96
21877;BME280;11103;43.788;23.710;2023-02-19T09:54:52;151247.53;;;19.22;58.82
21877;BME280;11103;43.788;23.710;2023-02-19T09:57:22;151251.44;;;19.24;59.11
21877;BME280;11103;43.788;23.710;2023-02-19T10:00:28;151281.06;;;19.35;59.21
21877;BME280;11103;43.788;23.710;2023-02-19T10:05:27;151278.50;;;19.34;59.44
21877;BME280;11103;43.788;23.710;2023-02-19T10:07:53;151278.50;;;19.34;59.31
21877;BME280;11103;43.788;23.710;2023-02-19T10:10:21;151314.69;;;19.48;59.32
21877;BME280;11103;43.788;23.710;2023-02-19T10:12:53;151314.69;;;19.48;59.56
21877;BME280;11103;43.788;23.710;2023-02-19T10:15:34;151321.13;;;19.51;59.96
21877;BME280;11103;43.788;23.710;2023-02-19T10:18:03;151336.56;;;19.57;58.87
21877;BME280;11103;43.788;23.710;2023-02-19T10:20:30;151296.59;;;19.41;58.99
21877;BME280;11103;43.788;23.710;2023-02-19T10:23:06;151314.69;;;19.48;58.97
21877;BME280;11103;43.788;23.710;2023-02-19T10:25:33;151291.44;;;19.39;59.47
21877;BME280;11103;43.788;23.710;2023-02-19T10:28:00;151386.88;;;19.77;60.13
21877;BME280;11103;43.788;23.710;2023-02-19T10:30:31;151411.41;;;19.86;58.94
21877;BME280;11103;43.788;23.710;2023-02-19T10:33:17;151434.59;;;19.95;57.35
21877;BME280;11103;43.788;23.710;2023-02-19T10:38:27;151419.13;;;19.89;56.59
21877;BME280;11103;43.788;23.710;2023-02-19T10:41:05;151481.06;;;20.13;56.09
21877;BME280;11103;43.788;23.710;2023-02-19T10:43:35;151475.84;;;20.11;56.01
21877;BME280;11103;43.788;23.710;2023-02-19T10:46:06;151451.38;;;20.02;55.34
21877;BME280;11103;43.788;23.710;2023-02-19T10:48:39;151434.59;;;19.95;55.51
21877;BME280;11103;43.788;23.710;2023-02-19T10:51:08;151403.66;;;19.83;55.47
21877;BME280;11103;43.788;23.710;2023-02-19T10:53:46;151404.94;;;19.84;55.08
21877;BME280;11103;43.788;23.710;2023-02-19T10:56:26;151393.31;;;19.79;54.67
21877;BME280;11103;43.788;23.710;2023-02-19T10:58:53;151314.69;;;19.48;55.68
21877;BME280;11103;43.788;23.710;2023-02-19T11:01:23;151292.75;;;19.40;56.41
21877;BME280;11103;43.788;23.710;2023-02-19T11:03:51;151263.03;;;19.28;56.09
21877;BME280;11103;43.788;23.710;2023-02-19T11:06:20;151274.63;;;19.33;56.31
21877;BME280;11103;43.788;23.710;2023-02-19T11:08:55;151279.81;;;19.35;57.69
21877;BME280;11103;43.788;23.710;2023-02-19T11:11:31;151341.75;;;19.59;56.70
21877;BME280;11103;43.788;23.710;2023-02-19T11:14:01;151377.81;;;19.73;56.32
21877;BME280;11103;43.788;23.710;2023-02-19T11:16:46;151340.44;;;19.58;54.72
21877;BME280;11103;43.788;23.710;2023-02-19T11:19:22;151331.41;;;19.55;55.62
21877;BME280;11103;43.788;23.710;2023-02-19T11:21:48;151314.69;;;19.48;55.30
21877;BME280;11103;43.788;23.710;2023-02-19T11:24:31;151324.97;;;19.52;54.42
21877;BME280;11103;43.788;23.710;2023-02-19T11:27:00;151330.09;;;19.54;54.72
21877;BME280;11103;43.788;23.710;2023-02-19T11:29:26;151321.13;;;19.51;55.29
21877;BME280;11103;43.788;23.710;2023-02-19T11:31:54;151315.94;;;19.49;54.39
21877;BME280;11103;43.788;23.710;2023-02-19T11:37:07;151281.06;;;19.35;55.55
21877;BME280;11103;43.788;23.710;2023-02-19T11:39:33;151257.88;;;19.26;55.42
21877;BME280;11103;43.788;23.710;2023-02-19T11:50:25;151290.16;;;19.39;56.00
21877;BME280;11103;43.788;23.710;2023-02-19T11:53:16;151332.72;;;19.55;55.19
21877;BME280;11103;43.788;23.710;2023-02-19T12:04:22;151435.88;;;19.96;52.34
21877;BME280;11103;43.788;23.710;2023-02-19T12:07:18;151444.94;;;19.99;52.34
21877;BME280;11103;43.788;23.710;2023-02-19T12:16:14;151455.22;;;20.03;51.69
21877;BME280;11103;43.788;23.710;2023-02-19T12:21:46;151519.78;;;20.29;50.85
21877;BME280;11103;43.788;23.710;2023-02-19T12:28:06;151590.75;;;20.56;49.55
21877;BME280;11103;43.788;23.710;2023-02-19T12:31:00;151588.16;;;20.55;49.87
21877;BME280;11103;43.788;23.710;2023-02-19T12:39:07;151607.53;;;20.63;49.36
21877;BME280;11103;43.788;23.710;2023-02-19T12:44:35;151553.31;;;20.42;49.61
21877;BME280;11103;43.788;23.710;2023-02-19T12:47:04;151548.19;;;20.40;48.51
21877;BME280;11103;43.788;23.710;2023-02-19T12:49:37;151572.69;;;20.49;49.32
21877;BME280;11103;43.788;23.710;2023-02-19T12:52:09;151571.41;;;20.49;48.63
21877;BME280;11103;43.788;23.710;2023-02-19T12:54:40;151594.63;;;20.58;49.74
21877;BME280;11103;43.788;23.710;2023-02-19T12:57:09;151638.53;;;20.75;49.09
21877;BME280;11103;43.788;23.710;2023-02-19T13:02:21;151708.22;;;21.02;47.86
21877;BME280;11103;43.788;23.710;2023-02-19T13:05:14;151728.94;;;21.10;46.75
21877;BME280;11103;43.788;23.710;2023-02-19T13:08:04;151762.50;;;21.23;46.77
21877;BME280;11103;43.788;23.710;2023-02-19T13:13:06;151790.91;;;21.34;45.84
21877;BME280;11103;43.788;23.710;2023-02-19T13:15:38;151821.91;;;21.47;45.86
21877;BME280;11103;43.788;23.710;2023-02-19T13:18:30;151827.06;;;21.49;45.11
21877;BME280;11103;43.788;23.710;2023-02-19T13:20:58;151821.91;;;21.47;44.91
21877;BME280;11103;43.788;23.710;2023-02-19T13:23:28;151819.31;;;21.46;45.22
21877;BME280;11103;43.788;23.710;2023-02-19T13:37:45;151930.44;;;21.89;43.48
21877;BME280;11103;43.788;23.710;2023-02-19T13:42:54;151876.16;;;21.68;45.55
21877;BME280;11103;43.788;23.710;2023-02-19T13:45:22;151843.81;;;21.55;46.89
21877;BME280;11103;43.788;23.710;2023-02-19T13:50:31;151873.56;;;21.67;47.61
21877;BME280;11103;43.788;23.710;2023-02-19T13:52:58;151829.66;;;21.50;48.58
21877;BME280;11103;43.788;23.710;2023-02-19T13:55:45;151787.03;;;21.33;49.10
21877;BME280;11103;43.788;23.710;2023-02-19T14:01:00;151763.78;;;21.24;50.57
21877;BME280;11103;43.788;23.710;2023-02-19T14:11:13;151687.56;;;20.94;52.07
21877;BME280;11103;43.788;23.710;2023-02-19T14:13:57;151679.81;;;20.91;52.38
21877;BME280;11103;43.788;23.710;2023-02-19T14:16:31;151652.72;;;20.81;52.55
21877;BME280;11103;43.788;23.710;2023-02-19T14:18:59;151673.38;;;20.89;53.10
21877;BME280;11103;43.788;23.710;2023-02-19T14:21:34;151681.13;;;20.92;54.29
21877;BME280;11103;43.788;23.710;2023-02-19T14:24:01;151666.91;;;20.86;54.69
21877;BME280;11103;43.788;23.710;2023-02-19T14:26:30;151669.50;;;20.87;54.86
21877;BME280;11103;43.788;23.710;2023-02-19T14:28:57;151637.22;;;20.74;55.14
21877;BME280;11103;43.788;23.710;2023-02-19T14:31:33;151625.63;;;20.70;54.77
21877;BME280;11103;43.788;23.710;2023-02-19T14:34:05;151617.88;;;20.67;55.32
21877;BME280;11103;43.788;23.710;2023-02-19T14:36:55;151651.41;;;20.80;53.46
21877;BME280;11103;43.788;23.710;2023-02-19T14:39:26;151700.47;;;20.99;54.33
21877;BME280;11103;43.788;23.710;2023-02-19T14:41:57;151721.19;;;21.07;55.66
21877;BME280;11103;43.788;23.710;2023-02-19T14:44:25;151696.63;;;20.98;54.93
21877;BME280;11103;43.788;23.710;2023-02-19T14:47:06;151664.31;;;20.85;54.92
21877;BME280;11103;43.788;23.710;2023-02-19T14:52:25;151557.22;;;20.43;57.77
21877;BME280;11103;43.788;23.710;2023-02-19T14:54:55;151519.78;;;20.29;56.87
21877;BME280;11103;43.788;23.710;2023-02-19T14:57:27;151468.09;;;20.08;57.50
21877;BME280;11103;43.788;23.710;2023-02-19T15:00:18;151432.03;;;19.94;59.82